Kyoto Maru — JD3149 — position and weather

sailwx.info

Track history (hours):
 
Tides and Currents Weather Stations Pressure Air Temp Water Temp Dewpoint Dewpoint Depression Visibility Wind Speed Wind Dir Waves Ship Positions

Kyoto Maru

Last reported at 2015-Sep-01 15:34 UTC. Time now 2015-Sep-01 16:13 UTC.
Position N 35°27' E 139°39'.

Length 34 m; draft 3.8 m.

Type: Tug. MMSI: 431002219.

Date/timePositionNaut miles runAvg speedWind from/ knotsBaromVisibWave heightAir tempDewpointWater temp
2015-Sep-01 15:34N 35°27' E 139°39'0 0.0
2015-Sep-01 14:34N 35°27' E 139°39'0 0.0
2015-Sep-01 13:33N 35°27' E 139°39'0 0.0
2015-Sep-01 12:34N 35°27' E 139°39'0 0.0
2015-Sep-01 11:34N 35°27' E 139°39'0 0.0
2015-Sep-01 10:34N 35°27' E 139°39'0 0.0
2015-Sep-01 09:33N 35°27' E 139°39'0 0.0
2015-Sep-01 08:34N 35°27' E 139°39'0 0.0
2015-Sep-01 07:33N 35°27' E 139°39'0 0.0
2015-Sep-01 06:34N 35°27' E 139°39'0 0.0
2015-Sep-01 05:34N 35°27' E 139°39'0 0.0
2015-Sep-01 04:34N 35°27' E 139°39'0 0.0
2015-Sep-01 03:34N 35°27' E 139°39'0 0.0
2015-Sep-01 02:33N 35°27' E 139°39'0 0.0
2015-Sep-01 01:33N 35°27' E 139°39'0 0.0
2015-Sep-01 00:34N 35°27' E 139°39'0 0.0
2015-Aug-31 23:34N 35°27' E 139°39'0 0.5
2015-Aug-31 22:34N 35°27' E 139°40'2 2.0
2015-Aug-31 21:34N 35°27' E 139°42'1 0.5
2015-Aug-31 20:33N 35°27' E 139°42'0 0.0
2015-Aug-31 19:33N 35°27' E 139°42'0 0.0
2015-Aug-31 18:34N 35°27' E 139°42'0 0.0
2015-Aug-31 17:33N 35°27' E 139°42'0 0.0
2015-Aug-31 16:34N 35°27' E 139°42'3 3.1
2015-Aug-31 15:33N 35°24' E 139°41'3 3.1
2015-Aug-31 14:34N 35°27' E 139°39'0 0.0
2015-Aug-31 13:33N 35°27' E 139°39'0 0.0
2015-Aug-31 12:33N 35°27' E 139°39'0 0.0
2015-Aug-31 11:34N 35°27' E 139°39'1 1.2
2015-Aug-31 10:34N 35°27' E 139°41'5 5.1
2015-Aug-31 09:33N 35°30' E 139°46'6 6.2
2015-Aug-31 08:33N 35°27' E 139°39'0 0.0
2015-Aug-31 07:34N 35°27' E 139°39'0 0.0
2015-Aug-31 06:34N 35°27' E 139°39'0 0.0
2015-Aug-31 05:33N 35°27' E 139°39'0 0.0
2015-Aug-31 04:33N 35°27' E 139°39'3 3.0
2015-Aug-31 03:33N 35°27' E 139°43'3 2.8
2015-Aug-31 02:34N 35°29' E 139°45'1 0.5
2015-Aug-31 01:33N 35°29' E 139°45'0 0.0
2015-Aug-31 00:34N 35°29' E 139°45'0 0.0
2015-Aug-30 23:33N 35°29' E 139°45'2 1.5
2015-Aug-30 22:34N 35°30' E 139°47'6 5.5
2015-Aug-30 21:34N 35°27' E 139°41'1 1.3
2015-Aug-30 20:34N 35°27' E 139°39'0 0.0
2015-Aug-30 19:33N 35°27' E 139°39'0 0.0
2015-Aug-30 18:34N 35°27' E 139°39'0 0.0
2015-Aug-30 17:33N 35°27' E 139°39'0 0.0
2015-Aug-30 16:34N 35°27' E 139°39'0 0.0
2015-Aug-30 15:34N 35°27' E 139°39'0 0.0
2015-Aug-30 14:34N 35°27' E 139°39'0 0.0
2015-Aug-30 13:33N 35°27' E 139°39'0 0.0
2015-Aug-30 12:34N 35°27' E 139°39'0 0.0
2015-Aug-30 11:33N 35°27' E 139°39'0 0.0
2015-Aug-30 10:34N 35°27' E 139°39'0 0.0
2015-Aug-30 09:34N 35°27' E 139°39'0 0.0
2015-Aug-30 08:33N 35°27' E 139°39'0 0.0
2015-Aug-30 07:33N 35°27' E 139°39'9 9.3
2015-Aug-30 06:33N 35°29' E 139°50'6 6.4
2015-Aug-30 05:33N 35°28' E 139°58'0 0.0
2015-Aug-30 04:34N 35°28' E 139°58'1 1.1
2015-Aug-30 03:33N 35°29' E 139°57'9 9.1
2015-Aug-30 02:33N 35°27' E 139°47'6 5.7
2015-Aug-30 01:34N 35°27' E 139°39'0 0.1
2015-Aug-30 00:33N 35°27' E 139°39'1 1.4
2015-Aug-29 23:33N 35°26' E 139°41'1 1.4
2015-Aug-29 22:34N 35°26' E 139°42'3 2.7
2015-Aug-29 21:34N 35°27' E 139°39'0 0.0
2015-Aug-29 20:34N 35°27' E 139°39'0 0.0
2015-Aug-29 19:34N 35°27' E 139°39'0 0.0
2015-Aug-29 18:33N 35°27' E 139°39'0 0.0
2015-Aug-29 17:34N 35°27' E 139°39'0 0.0
2015-Aug-29 16:34N 35°27' E 139°39'0 0.0
2015-Aug-29 15:34N 35°27' E 139°39'0 0.0
2015-Aug-29 14:34N 35°27' E 139°39'0 0.0
2015-Aug-29 13:34N 35°27' E 139°39'0 0.0
2015-Aug-29 12:34N 35°27' E 139°39'0 0.0
2015-Aug-29 11:34N 35°27' E 139°39'0 0.0
2015-Aug-29 10:34N 35°27' E 139°39'2 1.5
2015-Aug-29 09:33N 35°27' E 139°41'1 0.8
2015-Aug-29 08:33N 35°27' E 139°42'3 3.3
2015-Aug-29 07:33N 35°28' E 139°45'1 0.8
2015-Aug-29 06:34N 35°28' E 139°44'4 4.1
2015-Aug-29 05:34N 35°27' E 139°39'0 0.0
2015-Aug-29 04:34N 35°27' E 139°39'2 2.5
2015-Aug-29 03:34N 35°25' E 139°42'3 3.5
2015-Aug-29 02:33N 35°24' E 139°38'1 1.0
2015-Aug-29 01:33N 35°24' E 139°39'7 6.9
2015-Aug-29 00:33N 35°28' E 139°46'2 1.5
2015-Aug-28 23:34N 35°29' E 139°47'3 3.0
2015-Aug-28 22:33N 35°28' E 139°44'4 4.0
2015-Aug-28 21:34N 35°27' E 139°39'0 0.0
2015-Aug-28 20:33N 35°27' E 139°39'0 0.0
2015-Aug-28 19:34N 35°27' E 139°39'0 0.0
2015-Aug-28 18:33N 35°27' E 139°39'0 0.0
2015-Aug-28 17:33N 35°27' E 139°39'0 0.0
2015-Aug-28 16:34N 35°27' E 139°39'0 0.0
2015-Aug-28 15:34N 35°27' E 139°39'0 0.0
2015-Aug-28 14:34N 35°27' E 139°39'0 0.0
2015-Aug-28 13:34N 35°27' E 139°39'0 0.0
2015-Aug-28 12:33N 35°27' E 139°39'0 0.0
2015-Aug-28 11:34N 35°27' E 139°39'0 0.0
2015-Aug-28 10:34N 35°27' E 139°39'0 0.0
2015-Aug-28 09:33N 35°27' E 139°39'0 0.0
2015-Aug-28 08:33N 35°27' E 139°39'0 0.0
2015-Aug-28 07:34N 35°27' E 139°39'0 0.0
2015-Aug-28 06:34N 35°27' E 139°39'0 0.0
2015-Aug-28 05:34N 35°27' E 139°39'0 0.0
2015-Aug-28 04:34N 35°27' E 139°39'0 0.0
2015-Aug-28 03:34N 35°27' E 139°39'0 0.0
2015-Aug-28 02:34N 35°27' E 139°39'0 0.0
2015-Aug-28 01:34N 35°27' E 139°39'0 0.0
2015-Aug-28 00:34N 35°27' E 139°39'0 0.0
2015-Aug-27 23:34N 35°27' E 139°39'2 2.3
2015-Aug-27 22:33N 35°28' E 139°42'3 2.9
2015-Aug-27 21:34N 35°26' E 139°45'5 5.1
2015-Aug-27 20:34N 35°27' E 139°39'3 2.6
2015-Aug-27 19:33N 35°26' E 139°42'2 2.1
2015-Aug-27 18:33N 35°27' E 139°39'0 0.0
2015-Aug-27 17:34N 35°27' E 139°39'0 0.0
2015-Aug-27 16:33N 35°27' E 139°39'0 0.0
2015-Aug-27 15:33N 35°27' E 139°39'0 0.0
2015-Aug-27 14:33N 35°27' E 139°39'0 0.0
2015-Aug-27 13:34N 35°27' E 139°39'1 1.4
2015-Aug-27 12:33N 35°26' E 139°41'1 1.1
2015-Aug-27 11:34N 35°27' E 139°40'1 1.0
2015-Aug-27 10:34N 35°27' E 139°41'1 0.7
2015-Aug-27 09:33N 35°27' E 139°41'3 2.7
2015-Aug-27 08:34N 35°26' E 139°44'4 4.2
2015-Aug-27 07:34N 35°27' E 139°39'0 0.1
2015-Aug-27 06:34N 35°27' E 139°39'0 0.0
2015-Aug-27 05:34N 35°27' E 139°39'0 0.0
2015-Aug-27 04:34N 35°27' E 139°39'0 0.0
2015-Aug-27 03:34N 35°27' E 139°39'0 0.0
2015-Aug-27 02:34N 35°27' E 139°39'0 0.0
2015-Aug-27 01:34N 35°27' E 139°39'0 0.0
2015-Aug-27 00:34N 35°27' E 139°39'0 0.0
2015-Aug-26 23:33N 35°27' E 139°39'0 0.0
2015-Aug-26 22:33N 35°27' E 139°39'0 0.0
2015-Aug-26 21:34N 35°27' E 139°39'0 0.0
2015-Aug-26 20:34N 35°27' E 139°39'0 0.0
2015-Aug-26 19:33N 35°27' E 139°39'0 0.0
2015-Aug-26 18:34N 35°27' E 139°39'0 0.0
2015-Aug-26 17:34N 35°27' E 139°39'0 0.0
2015-Aug-26 16:34N 35°27' E 139°39'0 0.0
2015-Aug-26 15:34N 35°27' E 139°39'0 0.0
2015-Aug-26 14:34N 35°27' E 139°39'0 0.0
2015-Aug-26 13:34N 35°27' E 139°39'0 0.0
2015-Aug-26 12:34N 35°27' E 139°39'0 0.0
2015-Aug-26 11:34N 35°27' E 139°39'0 0.0
2015-Aug-26 10:34N 35°27' E 139°39'0 0.0
2015-Aug-26 09:34N 35°27' E 139°39'0 0.0
2015-Aug-26 08:34N 35°27' E 139°39'0 0.0
2015-Aug-26 07:34N 35°27' E 139°39'0 0.0
2015-Aug-26 06:33N 35°27' E 139°39'0 0.0
2015-Aug-26 05:34N 35°27' E 139°39'0 0.0
2015-Aug-26 04:34N 35°27' E 139°39'0 0.0
2015-Aug-26 03:34N 35°27' E 139°39'0 0.0
2015-Aug-26 02:33N 35°27' E 139°39'0 0.0
2015-Aug-26 01:33N 35°27' E 139°39'4 4.3
2015-Aug-26 00:34N 35°27' E 139°44'1 1.4
2015-Aug-25 23:33N 35°29' E 139°45'2 2.1
2015-Aug-25 22:34N 35°27' E 139°45'5 4.8
2015-Aug-25 21:34N 35°27' E 139°39'0 0.0
2015-Aug-25 20:34N 35°27' E 139°39'0 0.0
2015-Aug-25 19:33N 35°27' E 139°39'0 0.0
2015-Aug-25 18:34N 35°27' E 139°39'0 0.0
2015-Aug-25 17:33N 35°27' E 139°39'0 0.0
2015-Aug-25 16:34N 35°27' E 139°39'0 0.0
2015-Aug-25 15:34N 35°27' E 139°39'0 0.0
2015-Aug-25 14:34N 35°27' E 139°39'0 0.0
2015-Aug-25 13:33N 35°27' E 139°39'0 0.0
2015-Aug-25 12:34N 35°27' E 139°39'0 0.0
2015-Aug-25 11:34N 35°27' E 139°39'0 0.0
2015-Aug-25 10:34N 35°27' E 139°39'0 0.0
2015-Aug-25 09:34N 35°27' E 139°39'0 0.0
2015-Aug-25 08:33N 35°27' E 139°39'0 0.3
2015-Aug-25 07:34N 35°27' E 139°39'2 2.3
2015-Aug-25 06:34N 35°28' E 139°42'0 0.1
2015-Aug-25 05:34N 35°28' E 139°42'2 2.3
2015-Aug-25 04:33N 35°27' E 139°39'0 0.0
2015-Aug-25 03:34N 35°27' E 139°39'0 0.0
2015-Aug-25 02:33N 35°27' E 139°39'0 0.0
2015-Aug-25 01:33N 35°27' E 139°39'0 0.0
2015-Aug-25 00:34N 35°27' E 139°39'0 0.0
2015-Aug-24 23:33N 35°27' E 139°39'2 2.0
2015-Aug-24 22:34N 35°25' E 139°41'1 1.3
2015-Aug-24 21:34N 35°26' E 139°42'2 1.9
2015-Aug-24 20:33N 35°27' E 139°39'0 0.0
2015-Aug-24 19:34N 35°27' E 139°39'0 0.0
2015-Aug-24 18:34N 35°27' E 139°39'0 0.0
2015-Aug-24 17:33N 35°27' E 139°39'0 0.0
2015-Aug-24 16:33N 35°27' E 139°39'0 0.0
2015-Aug-24 15:33N 35°27' E 139°39'0 0.0
2015-Aug-24 14:33N 35°27' E 139°39'0 0.0
2015-Aug-24 13:33N 35°27' E 139°39'0 0.0
2015-Aug-24 12:33N 35°27' E 139°39'0 0.0
2015-Aug-24 11:34N 35°27' E 139°39'0 0.0
2015-Aug-24 10:34N 35°27' E 139°39'0 0.0
2015-Aug-24 09:34N 35°27' E 139°39'0 0.0
2015-Aug-24 08:34N 35°27' E 139°39'0 0.0
2015-Aug-24 07:34N 35°27' E 139°39'0 0.0
2015-Aug-24 06:34N 35°27' E 139°39'0 0.0
2015-Aug-24 05:33N 35°27' E 139°39'0 0.0
2015-Aug-24 04:34N 35°27' E 139°39'0 0.0
2015-Aug-24 03:34N 35°27' E 139°39'0 0.0
2015-Aug-24 02:34N 35°27' E 139°39'0 0.0
2015-Aug-24 01:34N 35°27' E 139°39'0 0.0
2015-Aug-24 00:34N 35°27' E 139°39'0 0.3
2015-Aug-23 23:34N 35°27' E 139°39'1 1.0
2015-Aug-23 22:34N 35°26' E 139°40'1 0.8
2015-Aug-23 21:33N 35°27' E 139°40'1 0.8
2015-Aug-23 20:33N 35°27' E 139°39'0 0.0
2015-Aug-23 19:34N 35°27' E 139°39'0 0.0
2015-Aug-23 18:34N 35°27' E 139°39'0 0.0
2015-Aug-23 17:34N 35°27' E 139°39'0 0.0
2015-Aug-23 16:34N 35°27' E 139°39'0 0.0
2015-Aug-23 15:33N 35°27' E 139°39'0 0.0
2015-Aug-23 14:33N 35°27' E 139°39'0 0.0
2015-Aug-23 13:34N 35°27' E 139°39'0 0.0
2015-Aug-23 12:34N 35°27' E 139°39'0 0.0
2015-Aug-23 11:34N 35°27' E 139°39'0 0.0
2015-Aug-23 10:33N 35°27' E 139°39'1 1.2
2015-Aug-23 09:33N 35°27' E 139°41'1 1.2
2015-Aug-23 08:33N 35°27' E 139°39'0 0.0
2015-Aug-23 07:33N 35°27' E 139°39'1 1.0
2015-Aug-23 06:34N 35°27' E 139°40'1 1.0
2015-Aug-23 05:34N 35°27' E 139°39'0 0.0
2015-Aug-23 04:34N 35°27' E 139°39'7 7.2
2015-Aug-23 03:34N 35°30' E 139°47'5 4.8
2015-Aug-23 02:33N 35°29' E 139°42'1 1.5
2015-Aug-23 01:34N 35°28' E 139°40'3 2.9
2015-Aug-23 00:33N 35°25' E 139°42'3 3.0
2015-Aug-22 23:34N 35°25' E 139°39'3 2.7
2015-Aug-22 22:34N 35°25' E 139°42'3 3.0
2015-Aug-22 21:34N 35°27' E 139°39'0 0.0
2015-Aug-22 20:33N 35°27' E 139°39'0 0.0
2015-Aug-22 19:34N 35°27' E 139°39'0 0.0
2015-Aug-22 18:34N 35°27' E 139°39'0 0.0
2015-Aug-22 17:33N 35°27' E 139°39'0 0.0
2015-Aug-22 16:33N 35°27' E 139°39'  
Track history (hours):
 
Tides and Currents Weather Stations Pressure Air Temp Water Temp Dewpoint Dewpoint Depression Visibility Wind Speed Wind Dir Waves Ship Positions

Kyoto Maru

Last reported at 2015-Sep-01 15:34 UTC. Time now 2015-Sep-01 16:13 UTC.
Position N 35°27' E 139°39'.

Length 34 m; draft 3.8 m.

Type: Tug. MMSI: 431002219.

Date/timePositionNaut miles runAvg speedWind from/ knotsBaromVisibWave heightAir tempDewpointWater temp
2015-Sep-01 15:34N 35°27' E 139°39'0 0.0
2015-Sep-01 14:34N 35°27' E 139°39'0 0.0
2015-Sep-01 13:33N 35°27' E 139°39'0 0.0
2015-Sep-01 12:34N 35°27' E 139°39'0 0.0
2015-Sep-01 11:34N 35°27' E 139°39'0 0.0
2015-Sep-01 10:34N 35°27' E 139°39'0 0.0
2015-Sep-01 09:33N 35°27' E 139°39'0 0.0
2015-Sep-01 08:34N 35°27' E 139°39'0 0.0
2015-Sep-01 07:33N 35°27' E 139°39'0 0.0
2015-Sep-01 06:34N 35°27' E 139°39'0 0.0
2015-Sep-01 05:34N 35°27' E 139°39'0 0.0
2015-Sep-01 04:34N 35°27' E 139°39'0 0.0
2015-Sep-01 03:34N 35°27' E 139°39'0 0.0
2015-Sep-01 02:33N 35°27' E 139°39'0 0.0
2015-Sep-01 01:33N 35°27' E 139°39'0 0.0
2015-Sep-01 00:34N 35°27' E 139°39'0 0.0
2015-Aug-31 23:34N 35°27' E 139°39'0 0.5
2015-Aug-31 22:34N 35°27' E 139°40'2 2.0
2015-Aug-31 21:34N 35°27' E 139°42'1 0.5
2015-Aug-31 20:33N 35°27' E 139°42'0 0.0
2015-Aug-31 19:33N 35°27' E 139°42'0 0.0
2015-Aug-31 18:34N 35°27' E 139°42'0 0.0
2015-Aug-31 17:33N 35°27' E 139°42'0 0.0
2015-Aug-31 16:34N 35°27' E 139°42'3 3.1
2015-Aug-31 15:33N 35°24' E 139°41'3 3.1
2015-Aug-31 14:34N 35°27' E 139°39'0 0.0
2015-Aug-31 13:33N 35°27' E 139°39'0 0.0
2015-Aug-31 12:33N 35°27' E 139°39'0 0.0
2015-Aug-31 11:34N 35°27' E 139°39'1 1.2
2015-Aug-31 10:34N 35°27' E 139°41'5 5.1
2015-Aug-31 09:33N 35°30' E 139°46'6 6.2
2015-Aug-31 08:33N 35°27' E 139°39'0 0.0
2015-Aug-31 07:34N 35°27' E 139°39'0 0.0
2015-Aug-31 06:34N 35°27' E 139°39'0 0.0
2015-Aug-31 05:33N 35°27' E 139°39'0 0.0
2015-Aug-31 04:33N 35°27' E 139°39'3 3.0
2015-Aug-31 03:33N 35°27' E 139°43'3 2.8
2015-Aug-31 02:34N 35°29' E 139°45'1 0.5
2015-Aug-31 01:33N 35°29' E 139°45'0 0.0
2015-Aug-31 00:34N 35°29' E 139°45'0 0.0
2015-Aug-30 23:33N 35°29' E 139°45'2 1.5
2015-Aug-30 22:34N 35°30' E 139°47'6 5.5
2015-Aug-30 21:34N 35°27' E 139°41'1 1.3
2015-Aug-30 20:34N 35°27' E 139°39'0 0.0
2015-Aug-30 19:33N 35°27' E 139°39'0 0.0
2015-Aug-30 18:34N 35°27' E 139°39'0 0.0
2015-Aug-30 17:33N 35°27' E 139°39'0 0.0
2015-Aug-30 16:34N 35°27' E 139°39'0 0.0
2015-Aug-30 15:34N 35°27' E 139°39'0 0.0
2015-Aug-30 14:34N 35°27' E 139°39'0 0.0
2015-Aug-30 13:33N 35°27' E 139°39'0 0.0
2015-Aug-30 12:34N 35°27' E 139°39'0 0.0
2015-Aug-30 11:33N 35°27' E 139°39'0 0.0
2015-Aug-30 10:34N 35°27' E 139°39'0 0.0
2015-Aug-30 09:34N 35°27' E 139°39'0 0.0
2015-Aug-30 08:33N 35°27' E 139°39'0 0.0
2015-Aug-30 07:33N 35°27' E 139°39'9 9.3
2015-Aug-30 06:33N 35°29' E 139°50'6 6.4
2015-Aug-30 05:33N 35°28' E 139°58'0 0.0
2015-Aug-30 04:34N 35°28' E 139°58'1 1.1
2015-Aug-30 03:33N 35°29' E 139°57'9 9.1
2015-Aug-30 02:33N 35°27' E 139°47'6 5.7
2015-Aug-30 01:34N 35°27' E 139°39'0 0.1
2015-Aug-30 00:33N 35°27' E 139°39'1 1.4
2015-Aug-29 23:33N 35°26' E 139°41'1 1.4
2015-Aug-29 22:34N 35°26' E 139°42'3 2.7
2015-Aug-29 21:34N 35°27' E 139°39'0 0.0
2015-Aug-29 20:34N 35°27' E 139°39'0 0.0
2015-Aug-29 19:34N 35°27' E 139°39'0 0.0
2015-Aug-29 18:33N 35°27' E 139°39'0 0.0
2015-Aug-29 17:34N 35°27' E 139°39'0 0.0
2015-Aug-29 16:34N 35°27' E 139°39'0 0.0
2015-Aug-29 15:34N 35°27' E 139°39'0 0.0
2015-Aug-29 14:34N 35°27' E 139°39'0 0.0
2015-Aug-29 13:34N 35°27' E 139°39'0 0.0
2015-Aug-29 12:34N 35°27' E 139°39'0 0.0
2015-Aug-29 11:34N 35°27' E 139°39'0 0.0
2015-Aug-29 10:34N 35°27' E 139°39'2 1.5
2015-Aug-29 09:33N 35°27' E 139°41'1 0.8
2015-Aug-29 08:33N 35°27' E 139°42'3 3.3
2015-Aug-29 07:33N 35°28' E 139°45'1 0.8
2015-Aug-29 06:34N 35°28' E 139°44'4 4.1
2015-Aug-29 05:34N 35°27' E 139°39'0 0.0
2015-Aug-29 04:34N 35°27' E 139°39'2 2.5
2015-Aug-29 03:34N 35°25' E 139°42'3 3.5
2015-Aug-29 02:33N 35°24' E 139°38'1 1.0
2015-Aug-29 01:33N 35°24' E 139°39'7 6.9
2015-Aug-29 00:33N 35°28' E 139°46'2 1.5
2015-Aug-28 23:34N 35°29' E 139°47'3 3.0
2015-Aug-28 22:33N 35°28' E 139°44'4 4.0
2015-Aug-28 21:34N 35°27' E 139°39'0 0.0
2015-Aug-28 20:33N 35°27' E 139°39'0 0.0
2015-Aug-28 19:34N 35°27' E 139°39'0 0.0
2015-Aug-28 18:33N 35°27' E 139°39'0 0.0
2015-Aug-28 17:33N 35°27' E 139°39'0 0.0
2015-Aug-28 16:34N 35°27' E 139°39'0 0.0
2015-Aug-28 15:34N 35°27' E 139°39'0 0.0
2015-Aug-28 14:34N 35°27' E 139°39'0 0.0
2015-Aug-28 13:34N 35°27' E 139°39'0 0.0
2015-Aug-28 12:33N 35°27' E 139°39'0 0.0
2015-Aug-28 11:34N 35°27' E 139°39'0 0.0
2015-Aug-28 10:34N 35°27' E 139°39'0 0.0
2015-Aug-28 09:33N 35°27' E 139°39'0 0.0
2015-Aug-28 08:33N 35°27' E 139°39'0 0.0
2015-Aug-28 07:34N 35°27' E 139°39'0 0.0
2015-Aug-28 06:34N 35°27' E 139°39'0 0.0
2015-Aug-28 05:34N 35°27' E 139°39'0 0.0
2015-Aug-28 04:34N 35°27' E 139°39'0 0.0
2015-Aug-28 03:34N 35°27' E 139°39'0 0.0
2015-Aug-28 02:34N 35°27' E 139°39'0 0.0
2015-Aug-28 01:34N 35°27' E 139°39'0 0.0
2015-Aug-28 00:34N 35°27' E 139°39'0 0.0
2015-Aug-27 23:34N 35°27' E 139°39'2 2.3
2015-Aug-27 22:33N 35°28' E 139°42'3 2.9
2015-Aug-27 21:34N 35°26' E 139°45'5 5.1
2015-Aug-27 20:34N 35°27' E 139°39'3 2.6
2015-Aug-27 19:33N 35°26' E 139°42'2 2.1
2015-Aug-27 18:33N 35°27' E 139°39'0 0.0
2015-Aug-27 17:34N 35°27' E 139°39'0 0.0
2015-Aug-27 16:33N 35°27' E 139°39'0 0.0
2015-Aug-27 15:33N 35°27' E 139°39'0 0.0
2015-Aug-27 14:33N 35°27' E 139°39'0 0.0
2015-Aug-27 13:34N 35°27' E 139°39'1 1.4
2015-Aug-27 12:33N 35°26' E 139°41'1 1.1
2015-Aug-27 11:34N 35°27' E 139°40'1 1.0
2015-Aug-27 10:34N 35°27' E 139°41'1 0.7
2015-Aug-27 09:33N 35°27' E 139°41'3 2.7
2015-Aug-27 08:34N 35°26' E 139°44'4 4.2
2015-Aug-27 07:34N 35°27' E 139°39'0 0.1
2015-Aug-27 06:34N 35°27' E 139°39'0 0.0
2015-Aug-27 05:34N 35°27' E 139°39'0 0.0
2015-Aug-27 04:34N 35°27' E 139°39'0 0.0
2015-Aug-27 03:34N 35°27' E 139°39'0 0.0
2015-Aug-27 02:34N 35°27' E 139°39'0 0.0
2015-Aug-27 01:34N 35°27' E 139°39'0 0.0
2015-Aug-27 00:34N 35°27' E 139°39'0 0.0
2015-Aug-26 23:33N 35°27' E 139°39'0 0.0
2015-Aug-26 22:33N 35°27' E 139°39'0 0.0
2015-Aug-26 21:34N 35°27' E 139°39'0 0.0
2015-Aug-26 20:34N 35°27' E 139°39'0 0.0
2015-Aug-26 19:33N 35°27' E 139°39'0 0.0
2015-Aug-26 18:34N 35°27' E 139°39'0 0.0
2015-Aug-26 17:34N 35°27' E 139°39'0 0.0
2015-Aug-26 16:34N 35°27' E 139°39'0 0.0
2015-Aug-26 15:34N 35°27' E 139°39'0 0.0
2015-Aug-26 14:34N 35°27' E 139°39'0 0.0
2015-Aug-26 13:34N 35°27' E 139°39'0 0.0
2015-Aug-26 12:34N 35°27' E 139°39'0 0.0
2015-Aug-26 11:34N 35°27' E 139°39'0 0.0
2015-Aug-26 10:34N 35°27' E 139°39'0 0.0
2015-Aug-26 09:34N 35°27' E 139°39'0 0.0
2015-Aug-26 08:34N 35°27' E 139°39'0 0.0
2015-Aug-26 07:34N 35°27' E 139°39'0 0.0
2015-Aug-26 06:33N 35°27' E 139°39'0 0.0
2015-Aug-26 05:34N 35°27' E 139°39'0 0.0
2015-Aug-26 04:34N 35°27' E 139°39'0 0.0
2015-Aug-26 03:34N 35°27' E 139°39'0 0.0
2015-Aug-26 02:33N 35°27' E 139°39'0 0.0
2015-Aug-26 01:33N 35°27' E 139°39'4 4.3
2015-Aug-26 00:34N 35°27' E 139°44'1 1.4
2015-Aug-25 23:33N 35°29' E 139°45'2 2.1
2015-Aug-25 22:34N 35°27' E 139°45'5 4.8
2015-Aug-25 21:34N 35°27' E 139°39'0 0.0
2015-Aug-25 20:34N 35°27' E 139°39'0 0.0
2015-Aug-25 19:33N 35°27' E 139°39'0 0.0
2015-Aug-25 18:34N 35°27' E 139°39'0 0.0
2015-Aug-25 17:33N 35°27' E 139°39'0 0.0
2015-Aug-25 16:34N 35°27' E 139°39'0 0.0
2015-Aug-25 15:34N 35°27' E 139°39'0 0.0
2015-Aug-25 14:34N 35°27' E 139°39'0 0.0
2015-Aug-25 13:33N 35°27' E 139°39'0 0.0
2015-Aug-25 12:34N 35°27' E 139°39'0 0.0
2015-Aug-25 11:34N 35°27' E 139°39'0 0.0
2015-Aug-25 10:34N 35°27' E 139°39'0 0.0
2015-Aug-25 09:34N 35°27' E 139°39'0 0.0
2015-Aug-25 08:33N 35°27' E 139°39'0 0.3
2015-Aug-25 07:34N 35°27' E 139°39'2 2.3
2015-Aug-25 06:34N 35°28' E 139°42'0 0.1
2015-Aug-25 05:34N 35°28' E 139°42'2 2.3
2015-Aug-25 04:33N 35°27' E 139°39'0 0.0
2015-Aug-25 03:34N 35°27' E 139°39'0 0.0
2015-Aug-25 02:33N 35°27' E 139°39'0 0.0
2015-Aug-25 01:33N 35°27' E 139°39'0 0.0
2015-Aug-25 00:34N 35°27' E 139°39'0 0.0
2015-Aug-24 23:33N 35°27' E 139°39'2 2.0
2015-Aug-24 22:34N 35°25' E 139°41'1 1.3
2015-Aug-24 21:34N 35°26' E 139°42'2 1.9
2015-Aug-24 20:33N 35°27' E 139°39'0 0.0
2015-Aug-24 19:34N 35°27' E 139°39'0 0.0
2015-Aug-24 18:34N 35°27' E 139°39'0 0.0
2015-Aug-24 17:33N 35°27' E 139°39'0 0.0
2015-Aug-24 16:33N 35°27' E 139°39'0 0.0
2015-Aug-24 15:33N 35°27' E 139°39'0 0.0
2015-Aug-24 14:33N 35°27' E 139°39'0 0.0
2015-Aug-24 13:33N 35°27' E 139°39'0 0.0
2015-Aug-24 12:33N 35°27' E 139°39'0 0.0
2015-Aug-24 11:34N 35°27' E 139°39'0 0.0
2015-Aug-24 10:34N 35°27' E 139°39'0 0.0
2015-Aug-24 09:34N 35°27' E 139°39'0 0.0
2015-Aug-24 08:34N 35°27' E 139°39'0 0.0
2015-Aug-24 07:34N 35°27' E 139°39'0 0.0
2015-Aug-24 06:34N 35°27' E 139°39'0 0.0
2015-Aug-24 05:33N 35°27' E 139°39'0 0.0
2015-Aug-24 04:34N 35°27' E 139°39'0 0.0
2015-Aug-24 03:34N 35°27' E 139°39'0 0.0
2015-Aug-24 02:34N 35°27' E 139°39'0 0.0
2015-Aug-24 01:34N 35°27' E 139°39'0 0.0
2015-Aug-24 00:34N 35°27' E 139°39'0 0.3
2015-Aug-23 23:34N 35°27' E 139°39'1 1.0
2015-Aug-23 22:34N 35°26' E 139°40'1 0.8
2015-Aug-23 21:33N 35°27' E 139°40'1 0.8
2015-Aug-23 20:33N 35°27' E 139°39'0 0.0
2015-Aug-23 19:34N 35°27' E 139°39'0 0.0
2015-Aug-23 18:34N 35°27' E 139°39'0 0.0
2015-Aug-23 17:34N 35°27' E 139°39'0 0.0
2015-Aug-23 16:34N 35°27' E 139°39'0 0.0
2015-Aug-23 15:33N 35°27' E 139°39'0 0.0
2015-Aug-23 14:33N 35°27' E 139°39'0 0.0
2015-Aug-23 13:34N 35°27' E 139°39'0 0.0
2015-Aug-23 12:34N 35°27' E 139°39'0 0.0
2015-Aug-23 11:34N 35°27' E 139°39'0 0.0
2015-Aug-23 10:33N 35°27' E 139°39'1 1.2
2015-Aug-23 09:33N 35°27' E 139°41'1 1.2
2015-Aug-23 08:33N 35°27' E 139°39'0 0.0
2015-Aug-23 07:33N 35°27' E 139°39'1 1.0
2015-Aug-23 06:34N 35°27' E 139°40'1 1.0
2015-Aug-23 05:34N 35°27' E 139°39'0 0.0
2015-Aug-23 04:34N 35°27' E 139°39'7 7.2
2015-Aug-23 03:34N 35°30' E 139°47'5 4.8
2015-Aug-23 02:33N 35°29' E 139°42'1 1.5
2015-Aug-23 01:34N 35°28' E 139°40'3 2.9
2015-Aug-23 00:33N 35°25' E 139°42'3 3.0
2015-Aug-22 23:34N 35°25' E 139°39'3 2.7
2015-Aug-22 22:34N 35°25' E 139°42'3 3.0
2015-Aug-22 21:34N 35°27' E 139°39'0 0.0
2015-Aug-22 20:33N 35°27' E 139°39'0 0.0
2015-Aug-22 19:34N 35°27' E 139°39'0 0.0
2015-Aug-22 18:34N 35°27' E 139°39'0 0.0
2015-Aug-22 17:33N 35°27' E 139°39'0 0.0
2015-Aug-22 16:33N 35°27' E 139°39'  

Dump ship's entire track history